Terminal Aerodrome Forecast
Issued by NWS Tampa Bay Area, FL

Home | Current Version | Previous Version | Text Only | Print | Product List | Glossary On
Versions: 1 2 3 4 5 6 7 8 9 10 11 12 13 14 15 16 17 18 19 20 21 22 23 24 25 26 27 28 29 30 31 32 33
000
FTUS42 KTBW 050540
TAFTPA
TAF
KTPA 050540Z 0506/0606 VRB03KT P6SM FEW035 SCT080 BKN250
      TEMPO 0506/0508 4SM FU
     FM051500 23007KT P6SM SCT030 BKN250
     FM051800 26004KT P6SM VCTS SCT040CB BKN250
     FM060000 33004KT P6SM SCT040 BKN250
     FM060300 07002KT P6SM FEW040 BKN250=

USA.gov is the U.S. government's official web portal to all federal, state and local government web resources and services.